createdAt,value
2019-02-20T00:00:05.747Z,5.15
2019-02-20T00:01:14.985Z,5.17
2019-02-20T00:02:19.046Z,5.16
2019-02-20T00:03:23.534Z,5.17
2019-02-20T00:04:27.794Z,5.15
2019-02-20T00:05:32.339Z,5.15
2019-02-20T00:06:36.271Z,5.15
2019-02-20T00:07:40.276Z,5.14
2019-02-20T00:08:44.793Z,5.14
2019-02-20T00:09:48.646Z,5.14
2019-02-20T00:10:52.763Z,5.13
2019-02-20T00:11:56.693Z,5.12
2019-02-20T00:13:00.991Z,5.11
2019-02-20T00:14:05.016Z,5.11
2019-02-20T00:15:09.707Z,5.11
2019-02-20T00:16:13.735Z,5.10
2019-02-20T00:17:18.220Z,5.11
2019-02-20T00:18:22.838Z,5.10
2019-02-20T00:19:26.851Z,5.09
2019-02-20T00:20:30.814Z,5.07
2019-02-20T00:21:35.052Z,5.08
2019-02-20T00:22:40.472Z,5.06
2019-02-20T00:23:44.572Z,5.04
2019-02-20T00:24:48.753Z,5.03
2019-02-20T00:25:52.641Z,5.01
2019-02-20T00:26:56.897Z,5.00
2019-02-20T00:28:01.038Z,5.02
2019-02-20T00:29:05.303Z,4.99
2019-02-20T00:30:09.616Z,4.97
2019-02-20T00:31:13.892Z,4.96
2019-02-20T00:32:18.228Z,4.95
2019-02-20T00:33:22.538Z,4.94
2019-02-20T00:34:26.759Z,4.93
2019-02-20T00:35:31.054Z,4.94
2019-02-20T00:36:35.448Z,4.92
2019-02-20T00:37:39.668Z,4.91
2019-02-20T00:38:43.986Z,4.90
2019-02-20T00:39:48.283Z,4.89
2019-02-20T00:40:52.314Z,4.89
2019-02-20T00:41:56.334Z,4.88
2019-02-20T00:43:00.199Z,4.86
2019-02-20T00:44:19.495Z,4.85
2019-02-20T00:45:42.340Z,4.85
2019-02-20T00:46:54.215Z,4.82
2019-02-20T00:48:17.135Z,4.79
2019-02-20T00:49:42.714Z,4.78
2019-02-20T00:50:47.135Z,4.77
2019-02-20T00:52:10.282Z,4.75
2019-02-20T00:53:22.210Z,4.74
2019-02-20T00:54:26.475Z,4.72
2019-02-20T00:55:30.783Z,4.72
2019-02-20T00:56:34.847Z,4.71
2019-02-20T00:57:39.014Z,4.70
2019-02-20T00:58:43.016Z,4.70
2019-02-20T00:59:46.947Z,4.71
2019-02-20T01:00:50.882Z,4.72
2019-02-20T01:01:54.826Z,4.71
2019-02-20T01:02:59.099Z,4.73
2019-02-20T01:04:03.029Z,4.74
2019-02-20T01:05:07.298Z,4.75
2019-02-20T01:06:11.318Z,4.76
2019-02-20T01:07:15.614Z,4.76
2019-02-20T01:08:19.545Z,4.75
2019-02-20T01:09:23.799Z,4.75
2019-02-20T01:10:27.972Z,4.75
2019-02-20T01:11:32.409Z,4.74
2019-02-20T01:12:36.666Z,4.74
2019-02-20T01:13:40.666Z,4.76
2019-02-20T01:14:44.855Z,4.76
2019-02-20T01:15:49.205Z,4.77
2019-02-20T01:16:53.549Z,4.79
2019-02-20T01:17:57.560Z,4.80
2019-02-20T01:19:01.578Z,4.80
2019-02-20T01:20:06.397Z,4.83
2019-02-20T01:21:10.352Z,4.83
2019-02-20T01:22:14.575Z,4.86
2019-02-20T01:23:18.608Z,4.86
2019-02-20T01:24:22.866Z,4.86
2019-02-20T01:25:26.792Z,4.88
2019-02-20T01:26:30.979Z,4.88
2019-02-20T01:27:35.308Z,4.89
2019-02-20T01:28:39.251Z,4.88
2019-02-20T01:29:43.573Z,4.88
2019-02-20T01:30:47.612Z,4.90
2019-02-20T01:31:51.929Z,4.90
2019-02-20T01:32:55.966Z,4.90
2019-02-20T01:34:00.540Z,4.91
2019-02-20T01:35:04.953Z,4.91
2019-02-20T01:36:09.173Z,4.90
2019-02-20T01:37:13.466Z,4.90
2019-02-20T01:38:17.451Z,4.89
2019-02-20T01:39:21.532Z,4.88
2019-02-20T01:40:25.576Z,4.86
2019-02-20T01:41:29.550Z,4.87
2019-02-20T01:42:33.532Z,4.85
2019-02-20T01:43:37.600Z,4.82
2019-02-20T01:44:41.632Z,4.80
2019-02-20T01:45:46.087Z,4.78
2019-02-20T01:46:53.496Z,4.76
2019-02-20T01:47:57.897Z,4.76
2019-02-20T01:49:01.891Z,4.76
2019-02-20T01:50:06.158Z,4.76
2019-02-20T01:51:10.203Z,4.77
2019-02-20T01:52:14.243Z,4.79
2019-02-20T01:53:18.311Z,4.81
2019-02-20T01:54:22.356Z,4.83
2019-02-20T01:55:26.721Z,4.84
2019-02-20T01:56:30.789Z,4.84
2019-02-20T01:57:34.755Z,4.87
2019-02-20T01:58:39.143Z,4.86
2019-02-20T01:59:43.228Z,4.87
2019-02-20T02:00:47.731Z,4.86
2019-02-20T02:01:51.708Z,4.86
2019-02-20T02:02:55.758Z,4.87
2019-02-20T02:04:00.776Z,4.86
2019-02-20T02:05:05.269Z,4.88
2019-02-20T02:06:09.313Z,4.86
2019-02-20T02:07:13.352Z,4.86
2019-02-20T02:08:17.696Z,4.87
2019-02-20T02:09:21.755Z,4.86
2019-02-20T02:10:25.806Z,4.85
2019-02-20T02:11:30.218Z,4.84
2019-02-20T02:12:34.263Z,4.83
2019-02-20T02:13:38.610Z,4.81
2019-02-20T02:14:42.649Z,4.79
2019-02-20T02:15:46.610Z,4.78
2019-02-20T02:16:51.011Z,4.77
2019-02-20T02:17:55.053Z,4.76
2019-02-20T02:18:59.045Z,4.74
2019-02-20T02:20:03.158Z,4.73
2019-02-20T02:21:07.193Z,4.71
2019-02-20T02:22:11.485Z,4.70
2019-02-20T02:23:19.813Z,4.68
2019-02-20T02:24:21.299Z,4.66
2019-02-20T02:25:25.324Z,4.64
2019-02-20T02:26:29.378Z,4.64
2019-02-20T02:27:33.398Z,4.62
2019-02-20T02:28:37.803Z,4.61
2019-02-20T02:29:41.842Z,4.59
2019-02-20T02:30:46.192Z,4.57
2019-02-20T02:31:50.859Z,4.54
2019-02-20T02:32:54.943Z,4.52
2019-02-20T02:33:58.983Z,4.49
2019-02-20T02:35:03.059Z,4.47
2019-02-20T02:36:07.403Z,4.45
2019-02-20T02:37:11.676Z,4.45
2019-02-20T02:38:15.720Z,4.41
2019-02-20T02:39:19.807Z,4.40
2019-02-20T02:40:23.777Z,4.39
2019-02-20T02:41:28.342Z,4.36
2019-02-20T02:42:32.575Z,4.35
2019-02-20T02:43:36.618Z,4.34
2019-02-20T02:44:40.719Z,4.33
2019-02-20T02:45:44.927Z,4.29
2019-02-20T02:46:48.963Z,4.26
2019-02-20T02:47:52.893Z,4.22
2019-02-20T02:48:56.892Z,4.20
2019-02-20T02:50:01.420Z,4.18
2019-02-20T02:51:05.362Z,4.16
2019-02-20T02:52:09.547Z,4.14
2019-02-20T02:53:13.489Z,4.14
2019-02-20T02:54:17.720Z,4.15
2019-02-20T02:55:21.739Z,4.14
2019-02-20T02:56:25.715Z,4.14
2019-02-20T02:57:29.653Z,4.16
2019-02-20T02:58:33.828Z,4.17
2019-02-20T02:59:37.790Z,4.18
2019-02-20T03:00:41.762Z,4.19
2019-02-20T03:01:45.758Z,4.18
2019-02-20T03:02:49.700Z,4.23
2019-02-20T03:03:53.881Z,4.23
2019-02-20T03:04:57.925Z,4.23
2019-02-20T03:06:02.146Z,4.24
2019-02-20T03:07:06.157Z,4.22
2019-02-20T03:08:10.173Z,4.26
2019-02-20T03:09:14.545Z,4.23
2019-02-20T03:10:18.575Z,4.20
2019-02-20T03:11:22.856Z,4.18
2019-02-20T03:12:27.241Z,4.20
2019-02-20T03:13:31.463Z,4.15
2019-02-20T03:14:36.097Z,4.14
2019-02-20T03:15:40.128Z,4.11
2019-02-20T03:16:44.559Z,4.09
2019-02-20T03:17:48.916Z,4.14
2019-02-20T03:18:53.223Z,4.12
2019-02-20T03:19:57.839Z,4.11
2019-02-20T03:21:02.233Z,4.16
2019-02-20T03:22:06.251Z,4.13
2019-02-20T03:23:10.455Z,4.17
2019-02-20T03:24:14.632Z,4.13
2019-02-20T03:25:18.555Z,4.19
2019-02-20T03:26:22.503Z,4.14
2019-02-20T03:27:26.751Z,4.09
2019-02-20T03:28:31.250Z,4.09
2019-02-20T03:29:35.179Z,4.07
2019-02-20T03:30:39.657Z,4.03
2019-02-20T03:31:43.934Z,4.02
2019-02-20T03:32:48.107Z,4.03
2019-02-20T03:33:52.268Z,4.02
2019-02-20T03:34:56.513Z,3.94
2019-02-20T03:36:00.459Z,3.92
2019-02-20T03:37:04.704Z,3.86
2019-02-20T03:38:08.639Z,3.82
2019-02-20T03:39:12.664Z,3.79
2019-02-20T03:40:16.886Z,3.80
2019-02-20T03:41:20.917Z,3.79
2019-02-20T03:42:24.913Z,3.77
2019-02-20T03:43:29.175Z,3.73
2019-02-20T03:44:33.433Z,3.74
2019-02-20T03:45:37.352Z,3.76
2019-02-20T03:46:41.615Z,3.78
2019-02-20T03:47:45.714Z,3.78
2019-02-20T03:48:49.653Z,3.79
2019-02-20T03:49:53.917Z,3.82
2019-02-20T03:50:57.926Z,3.83
2019-02-20T03:52:02.124Z,3.88
2019-02-20T03:53:06.227Z,3.92
2019-02-20T03:54:11.001Z,3.95
2019-02-20T03:55:15.106Z,3.97
2019-02-20T03:56:19.275Z,3.99
2019-02-20T03:57:23.228Z,4.01
2019-02-20T03:58:27.240Z,4.04
2019-02-20T03:59:31.503Z,4.05
2019-02-20T04:00:35.545Z,4.08
2019-02-20T04:01:39.813Z,4.10
2019-02-20T04:02:43.753Z,4.11
2019-02-20T04:03:48.168Z,4.14
2019-02-20T04:04:52.116Z,4.14
2019-02-20T04:05:56.867Z,4.17
2019-02-20T04:07:00.873Z,4.17
2019-02-20T04:08:04.970Z,4.17
2019-02-20T04:09:09.258Z,4.20
2019-02-20T04:10:13.280Z,4.20
2019-02-20T04:11:17.222Z,4.20
2019-02-20T04:12:21.247Z,4.20
2019-02-20T04:13:25.184Z,4.20
2019-02-20T04:14:29.667Z,4.20
2019-02-20T04:15:33.974Z,4.20
2019-02-20T04:16:38.182Z,4.21
2019-02-20T04:17:42.693Z,4.23
2019-02-20T04:18:47.212Z,4.23
2019-02-20T04:19:51.229Z,4.24
2019-02-20T04:20:55.272Z,4.25
2019-02-20T04:21:59.526Z,4.26
2019-02-20T04:23:03.889Z,4.28
2019-02-20T04:24:07.904Z,4.31
2019-02-20T04:25:11.844Z,4.32
2019-02-20T04:26:15.852Z,4.34
2019-02-20T04:27:19.735Z,4.37
2019-02-20T04:28:23.936Z,4.38
2019-02-20T04:29:27.924Z,4.39
2019-02-20T04:30:32.242Z,4.42
2019-02-20T04:31:36.549Z,4.43
2019-02-20T04:32:40.503Z,4.48
2019-02-20T04:33:44.775Z,4.49
2019-02-20T04:34:48.966Z,4.52
2019-02-20T04:35:52.891Z,4.54
2019-02-20T04:36:57.389Z,4.54
2019-02-20T04:38:01.673Z,4.57
2019-02-20T04:39:06.608Z,4.58
2019-02-20T04:40:10.639Z,4.55
2019-02-20T04:41:14.582Z,4.53
2019-02-20T04:42:18.659Z,4.53
2019-02-20T04:43:22.859Z,4.54
2019-02-20T04:44:27.115Z,4.54
2019-02-20T04:45:31.304Z,4.55
2019-02-20T04:46:35.403Z,4.56
2019-02-20T04:47:39.849Z,4.56
2019-02-20T04:48:43.775Z,4.57
2019-02-20T04:49:47.975Z,4.60
2019-02-20T04:50:51.986Z,4.62
2019-02-20T04:51:56.233Z,4.64
2019-02-20T04:53:00.176Z,4.63
2019-02-20T04:54:12.927Z,4.61
2019-02-20T04:55:10.175Z,4.62
2019-02-20T04:56:14.326Z,4.62
2019-02-20T04:57:18.923Z,4.62
2019-02-20T04:58:23.523Z,4.62
2019-02-20T04:59:27.804Z,4.64
2019-02-20T05:00:32.159Z,4.65
2019-02-20T05:01:36.461Z,4.65
2019-02-20T05:02:40.487Z,4.66
2019-02-20T05:03:44.681Z,4.67
2019-02-20T05:04:48.692Z,4.67
2019-02-20T05:05:53.082Z,4.67
2019-02-20T05:06:57.068Z,4.66
2019-02-20T05:08:01.086Z,4.64
2019-02-20T05:09:06.340Z,4.61
2019-02-20T05:10:11.338Z,4.59
2019-02-20T05:11:15.280Z,4.57
2019-02-20T05:12:19.220Z,4.56
2019-02-20T05:13:23.171Z,4.56
2019-02-20T05:14:27.416Z,4.54
2019-02-20T05:15:31.519Z,4.53
2019-02-20T05:16:35.773Z,4.53
2019-02-20T05:17:39.872Z,4.53
2019-02-20T05:18:44.118Z,4.53
2019-02-20T05:19:48.433Z,4.54
2019-02-20T05:20:52.684Z,4.53
2019-02-20T05:21:56.542Z,4.52
2019-02-20T05:23:00.564Z,4.55
2019-02-20T05:24:04.728Z,4.57
2019-02-20T05:25:08.810Z,4.58
2019-02-20T05:26:12.826Z,4.59
2019-02-20T05:27:17.093Z,4.60
2019-02-20T05:28:21.400Z,4.62
2019-02-20T05:29:26.014Z,4.64
2019-02-20T05:30:29.965Z,4.66
2019-02-20T05:31:34.284Z,4.66
2019-02-20T05:32:38.239Z,4.67
2019-02-20T05:33:42.258Z,4.67
2019-02-20T05:34:46.125Z,4.67
2019-02-20T05:35:50.063Z,4.66
2019-02-20T05:36:54.013Z,4.65
2019-02-20T05:37:58.325Z,4.63
2019-02-20T05:39:02.440Z,4.63
2019-02-20T05:40:06.844Z,4.62
2019-02-20T05:41:10.861Z,4.60
2019-02-20T05:42:15.457Z,4.60
2019-02-20T05:43:19.727Z,4.58
2019-02-20T05:44:23.680Z,4.56
2019-02-20T05:45:27.623Z,4.55
2019-02-20T05:46:31.563Z,4.54
2019-02-20T05:47:35.997Z,4.52
2019-02-20T05:48:40.279Z,4.53
2019-02-20T05:49:44.239Z,4.50
2019-02-20T05:50:49.000Z,4.48
2019-02-20T05:51:52.979Z,4.47
2019-02-20T05:52:57.369Z,4.47
2019-02-20T05:54:01.301Z,4.48
2019-02-20T05:55:05.660Z,4.48
2019-02-20T05:56:10.088Z,4.48
2019-02-20T05:57:14.283Z,4.50
2019-02-20T05:58:18.148Z,4.50
2019-02-20T05:59:22.331Z,4.51
2019-02-20T06:00:26.275Z,4.49
2019-02-20T06:01:30.749Z,4.49
2019-02-20T06:02:35.139Z,4.48
2019-02-20T06:03:39.095Z,4.49
2019-02-20T06:04:43.352Z,4.45
2019-02-20T06:05:47.386Z,4.41
2019-02-20T06:06:53.171Z,4.43
2019-02-20T06:07:57.061Z,4.43
2019-02-20T06:09:01.107Z,4.44
2019-02-20T06:10:08.933Z,4.39
2019-02-20T06:11:15.177Z,4.37
2019-02-20T06:12:19.567Z,4.41
2019-02-20T06:13:23.837Z,4.39
2019-02-20T06:14:27.842Z,4.34
2019-02-20T06:15:31.915Z,4.35
2019-02-20T06:16:35.987Z,4.34
2019-02-20T06:17:40.039Z,4.35
2019-02-20T06:18:44.334Z,4.37
2019-02-20T06:19:48.854Z,4.43
2019-02-20T06:20:53.034Z,4.43
2019-02-20T06:21:57.034Z,4.42
2019-02-20T06:23:00.962Z,4.42
2019-02-20T06:24:05.234Z,4.44
2019-02-20T06:25:09.269Z,4.44
2019-02-20T06:26:13.504Z,4.46
2019-02-20T06:27:17.845Z,4.46
2019-02-20T06:28:22.051Z,4.47
2019-02-20T06:29:26.299Z,4.48
2019-02-20T06:30:30.314Z,4.50
2019-02-20T06:31:34.823Z,4.49
2019-02-20T06:32:38.826Z,4.50
2019-02-20T06:33:43.096Z,4.47
2019-02-20T06:34:47.096Z,4.45
2019-02-20T06:35:51.590Z,4.42
2019-02-20T06:36:55.886Z,4.40
2019-02-20T06:38:00.071Z,4.41
2019-02-20T06:39:05.170Z,4.40
2019-02-20T06:40:09.645Z,4.38
2019-02-20T06:41:14.245Z,4.37
2019-02-20T06:42:18.178Z,4.37
2019-02-20T06:43:22.581Z,4.38
2019-02-20T06:44:27.301Z,4.36
2019-02-20T06:45:31.310Z,4.33
2019-02-20T06:46:35.511Z,4.31
2019-02-20T06:47:39.707Z,4.30
2019-02-20T06:48:43.991Z,4.30
2019-02-20T06:49:48.010Z,4.30
2019-02-20T06:50:52.031Z,4.32
2019-02-20T06:51:56.510Z,4.33
2019-02-20T06:53:01.020Z,4.36
2019-02-20T06:54:05.040Z,4.37
2019-02-20T06:55:09.661Z,4.40
2019-02-20T06:56:13.967Z,4.40
2019-02-20T06:57:18.256Z,4.40
2019-02-20T06:58:22.479Z,4.40
2019-02-20T06:59:26.622Z,4.42
2019-02-20T07:00:30.644Z,4.42
2019-02-20T07:01:34.943Z,4.43
2019-02-20T07:02:39.075Z,4.44
2019-02-20T07:03:43.288Z,4.44
2019-02-20T07:05:23.052Z,4.46
2019-02-20T07:06:37.809Z,4.49
2019-02-20T07:08:17.635Z,4.39
2019-02-20T07:10:07.608Z,4.33
2019-02-20T07:11:38.793Z,4.33
2019-02-20T07:13:09.271Z,4.25
2019-02-20T07:14:32.406Z,4.22
2019-02-20T07:16:45.524Z,4.24
2019-02-20T07:18:29.010Z,4.20
2019-02-20T07:19:47.961Z,4.17
2019-02-20T07:21:15.623Z,4.13
2019-02-20T07:23:12.915Z,4.18
2019-02-20T07:24:47.736Z,4.13
2019-02-20T07:26:26.967Z,4.19
2019-02-20T07:28:14.758Z,4.12
2019-02-20T07:29:43.314Z,4.12
2019-02-20T07:30:47.177Z,4.16
2019-02-20T07:31:51.387Z,4.23
2019-02-20T07:32:55.891Z,4.27
2019-02-20T07:34:00.183Z,4.30
2019-02-20T07:35:04.405Z,4.34
2019-02-20T07:36:08.412Z,4.38
2019-02-20T07:37:12.596Z,4.42
2019-02-20T07:38:16.802Z,4.47
2019-02-20T07:39:20.983Z,4.50
2019-02-20T07:40:24.996Z,4.55
2019-02-20T07:41:29.169Z,4.60
2019-02-20T07:42:33.295Z,4.65
2019-02-20T07:43:37.483Z,4.71
2019-02-20T07:44:41.684Z,4.78
2019-02-20T07:45:45.685Z,4.84
2019-02-20T07:46:49.796Z,4.93
2019-02-20T07:47:54.352Z,4.97
2019-02-20T07:48:58.367Z,5.02
2019-02-20T07:50:02.886Z,5.08
2019-02-20T07:51:06.991Z,5.14
2019-02-20T07:52:11.392Z,5.20
2019-02-20T07:53:15.589Z,5.25
2019-02-20T07:54:19.790Z,5.28
2019-02-20T07:55:24.057Z,5.32
2019-02-20T07:56:28.316Z,5.36
2019-02-20T07:57:32.266Z,5.36
2019-02-20T07:58:36.515Z,5.38
2019-02-20T07:59:40.579Z,5.35
2019-02-20T08:00:44.518Z,5.34
2019-02-20T08:01:48.710Z,5.36
2019-02-20T08:02:52.984Z,5.38
2019-02-20T08:03:56.928Z,5.41
2019-02-20T08:05:01.243Z,5.47
2019-02-20T08:06:05.583Z,5.51
2019-02-20T08:07:09.890Z,5.53
2019-02-20T08:08:14.157Z,5.53
2019-02-20T08:09:18.477Z,5.56
2019-02-20T08:10:22.483Z,5.58
2019-02-20T08:11:26.797Z,5.63
2019-02-20T08:12:31.059Z,5.66
2019-02-20T08:13:39.241Z,5.71
2019-02-20T08:14:40.911Z,5.78
2019-02-20T08:15:45.423Z,5.83
2019-02-20T08:16:52.240Z,5.89
2019-02-20T08:17:55.448Z,5.97
2019-02-20T08:18:59.626Z,6.05
2019-02-20T08:20:03.731Z,6.12
2019-02-20T08:21:07.674Z,6.17
2019-02-20T08:22:11.608Z,6.21
2019-02-20T08:23:16.132Z,6.25
2019-02-20T08:24:20.299Z,6.28
2019-02-20T08:25:24.562Z,6.33
2019-02-20T08:26:28.493Z,6.36
2019-02-20T08:27:32.749Z,6.33
2019-02-20T08:28:36.695Z,6.32
2019-02-20T08:29:40.701Z,6.30
2019-02-20T08:30:44.872Z,6.31
2019-02-20T08:31:49.141Z,6.31
2019-02-20T08:32:53.085Z,6.34
2019-02-20T08:33:57.297Z,6.32
2019-02-20T08:35:01.409Z,6.33
2019-02-20T08:36:05.709Z,6.34
2019-02-20T08:37:09.986Z,6.33
2019-02-20T08:38:13.943Z,6.34
2019-02-20T08:39:18.085Z,6.32
2019-02-20T08:40:22.127Z,6.36
2019-02-20T08:41:26.059Z,6.38
2019-02-20T08:42:30.167Z,6.36
2019-02-20T08:43:34.037Z,6.30
2019-02-20T08:44:38.026Z,6.26
2019-02-20T08:45:41.960Z,6.26
2019-02-20T08:46:45.961Z,6.24
2019-02-20T08:47:50.181Z,6.16
2019-02-20T08:48:54.370Z,6.18
2019-02-20T08:49:58.635Z,6.17
2019-02-20T08:51:03.095Z,6.14
2019-02-20T08:52:07.918Z,6.14
2019-02-20T08:53:12.308Z,6.13
2019-02-20T08:54:16.486Z,6.14
2019-02-20T08:55:21.566Z,6.20
2019-02-20T08:56:26.054Z,6.17
2019-02-20T08:57:30.295Z,6.14
2019-02-20T08:58:34.309Z,6.17
2019-02-20T08:59:38.335Z,6.19
2019-02-20T09:00:42.592Z,6.22
2019-02-20T09:01:46.514Z,6.29
2019-02-20T09:02:50.475Z,6.33
2019-02-20T09:03:54.423Z,6.38
2019-02-20T09:04:58.606Z,6.46
2019-02-20T09:06:02.595Z,6.51
2019-02-20T09:07:07.048Z,6.52
2019-02-20T09:08:11.057Z,6.55
2019-02-20T09:09:15.051Z,6.60
2019-02-20T09:10:19.161Z,6.65
2019-02-20T09:11:23.532Z,6.68
2019-02-20T09:12:27.471Z,6.72
2019-02-20T09:13:31.385Z,6.75
2019-02-20T09:14:35.250Z,6.77
2019-02-20T09:15:39.116Z,6.82
2019-02-20T09:16:43.427Z,6.85
2019-02-20T09:17:47.287Z,6.90
2019-02-20T09:18:51.490Z,6.92
2019-02-20T09:19:55.500Z,6.93
2019-02-20T09:20:59.328Z,6.94
2019-02-20T09:22:03.316Z,6.94
2019-02-20T09:23:07.322Z,6.94
2019-02-20T09:24:11.736Z,6.93
2019-02-20T09:25:19.837Z,6.93
2019-02-20T09:26:22.299Z,6.93
2019-02-20T09:27:26.438Z,6.92
2019-02-20T09:28:31.019Z,6.91
2019-02-20T09:29:34.963Z,6.92
2019-02-20T09:30:38.898Z,6.88
2019-02-20T09:31:43.364Z,6.85
2019-02-20T09:32:47.554Z,6.84
2019-02-20T09:33:51.742Z,6.82
2019-02-20T09:34:55.943Z,6.83
2019-02-20T09:36:00.251Z,6.85
2019-02-20T09:37:04.460Z,6.87
2019-02-20T09:38:10.487Z,6.87
2019-02-20T09:39:46.071Z,6.88
2019-02-20T09:40:50.253Z,6.87
2019-02-20T09:41:54.611Z,6.88
2019-02-20T09:42:58.539Z,6.86
2019-02-20T09:44:02.544Z,6.87
2019-02-20T09:45:06.753Z,6.92
2019-02-20T09:46:10.653Z,6.98
2019-02-20T09:47:14.900Z,7.03
2019-02-20T09:48:23.911Z,7.11
2019-02-20T09:49:28.230Z,7.11
2019-02-20T09:50:32.464Z,7.09
2019-02-20T09:51:36.632Z,7.11
2019-02-20T09:52:40.948Z,7.15
2019-02-20T09:53:45.240Z,7.20
2019-02-20T09:54:49.508Z,7.23
2019-02-20T09:55:53.510Z,7.24
2019-02-20T09:56:57.698Z,7.28
2019-02-20T09:58:02.203Z,7.31
2019-02-20T09:59:06.206Z,7.34
2019-02-20T10:00:12.780Z,7.40
2019-02-20T10:01:17.056Z,7.47
2019-02-20T10:02:21.060Z,7.48
2019-02-20T10:03:25.232Z,7.52
2019-02-20T10:04:29.418Z,7.57
2019-02-20T10:05:33.438Z,7.62
2019-02-20T10:06:37.714Z,7.68
2019-02-20T10:07:41.741Z,7.73
2019-02-20T10:08:45.889Z,7.82
2019-02-20T10:09:49.822Z,7.86
2019-02-20T10:10:53.764Z,7.92
2019-02-20T10:11:57.942Z,7.95
2019-02-20T10:13:01.798Z,7.99
2019-02-20T10:14:06.046Z,8.02
2019-02-20T10:15:11.207Z,8.09
2019-02-20T10:16:15.370Z,8.12
2019-02-20T10:17:20.107Z,8.17
2019-02-20T10:18:24.037Z,8.20
2019-02-20T10:19:28.043Z,8.25
2019-02-20T10:20:32.497Z,8.28
2019-02-20T10:21:36.494Z,8.32
2019-02-20T10:22:40.495Z,8.37
2019-02-20T10:23:45.302Z,8.39
2019-02-20T10:24:49.159Z,8.45
2019-02-20T10:26:00.547Z,8.50
2019-02-20T10:27:00.873Z,8.59
2019-02-20T10:28:05.015Z,8.59
2019-02-20T10:29:08.966Z,8.59
2019-02-20T10:30:15.102Z,8.59
2019-02-20T10:31:19.125Z,8.59
2019-02-20T10:32:23.118Z,8.65
2019-02-20T10:33:26.989Z,8.67
2019-02-20T10:34:31.261Z,8.68
2019-02-20T10:35:35.114Z,8.73
2019-02-20T10:36:39.705Z,8.78
2019-02-20T10:37:43.746Z,8.82
2019-02-20T10:38:47.621Z,8.89
2019-02-20T10:39:51.906Z,8.92
2019-02-20T10:40:55.947Z,9.00
2019-02-20T10:41:59.964Z,9.03
2019-02-20T10:43:03.977Z,9.07
2019-02-20T10:44:08.554Z,9.10
2019-02-20T10:45:12.589Z,9.14
2019-02-20T10:46:17.246Z,9.19
2019-02-20T10:47:21.119Z,9.25
2019-02-20T10:48:25.452Z,9.26
2019-02-20T10:49:29.387Z,9.26
2019-02-20T10:50:33.866Z,9.27
2019-02-20T10:51:37.879Z,9.29
2019-02-20T10:52:41.808Z,9.31
2019-02-20T10:53:45.735Z,9.33
2019-02-20T10:54:57.393Z,9.36
2019-02-20T10:55:55.314Z,9.38
2019-02-20T10:56:59.202Z,9.40
2019-02-20T10:58:03.133Z,9.42
2019-02-20T10:59:07.645Z,9.45
2019-02-20T11:00:26.699Z,9.50
2019-02-20T11:01:30.714Z,9.54
2019-02-20T11:02:35.091Z,9.61
2019-02-20T11:03:39.189Z,9.66
2019-02-20T11:04:43.201Z,9.73
2019-02-20T11:05:47.458Z,9.78
2019-02-20T11:06:53.331Z,9.85
2019-02-20T11:07:57.403Z,9.92
2019-02-20T11:09:01.690Z,9.97
2019-02-20T11:10:07.520Z,10.03
2019-02-20T11:11:11.517Z,10.08
2019-02-20T11:12:16.005Z,10.13
2019-02-20T11:13:19.940Z,10.20
2019-02-20T11:14:23.822Z,10.29
2019-02-20T11:15:27.751Z,10.39
2019-02-20T11:16:33.091Z,10.48
2019-02-20T11:17:37.566Z,10.55
2019-02-20T11:18:41.419Z,10.65
2019-02-20T11:19:45.425Z,10.77
2019-02-20T11:20:49.432Z,10.86
2019-02-20T11:21:53.607Z,10.97
2019-02-20T11:22:57.556Z,11.09
2019-02-20T11:24:01.820Z,11.19
2019-02-20T11:25:06.767Z,11.30
2019-02-20T11:26:17.875Z,11.42
2019-02-20T11:27:16.445Z,11.53
2019-02-20T11:28:26.780Z,11.61
2019-02-20T11:29:26.311Z,11.71
2019-02-20T11:30:30.958Z,11.78
2019-02-20T11:31:35.288Z,11.85
2019-02-20T11:32:39.595Z,11.95
2019-02-20T11:33:43.614Z,12.04
2019-02-20T11:34:48.022Z,12.13
2019-02-20T11:35:52.325Z,12.19
2019-02-20T11:36:56.519Z,12.27
2019-02-20T11:38:00.400Z,12.36
2019-02-20T11:39:06.160Z,12.41
2019-02-20T11:40:10.485Z,12.50
2019-02-20T11:41:14.526Z,12.59
2019-02-20T11:42:18.529Z,12.69
2019-02-20T11:43:22.479Z,12.75
2019-02-20T11:44:26.838Z,12.84
2019-02-20T11:45:31.172Z,12.89
2019-02-20T11:46:35.214Z,12.97
2019-02-20T11:47:39.426Z,13.05
2019-02-20T11:48:44.360Z,13.12
2019-02-20T11:49:48.522Z,13.18
2019-02-20T11:50:52.568Z,13.23
2019-02-20T11:51:56.728Z,13.33
2019-02-20T11:53:01.188Z,13.40
2019-02-20T11:54:05.250Z,13.53
2019-02-20T11:55:09.524Z,13.59
2019-02-20T11:56:13.966Z,13.61
2019-02-20T11:57:18.168Z,13.64
2019-02-20T11:58:22.293Z,13.68
2019-02-20T11:59:26.714Z,13.72
2019-02-20T12:00:31.046Z,13.78
2019-02-20T12:01:35.472Z,13.84
2019-02-20T12:02:39.606Z,13.88
2019-02-20T12:03:43.830Z,14.01
2019-02-20T12:04:47.805Z,14.02
2019-02-20T12:05:51.838Z,14.00
2019-02-20T12:06:56.146Z,13.97
2019-02-20T12:08:00.435Z,13.98
2019-02-20T12:09:05.702Z,14.00
2019-02-20T12:10:09.951Z,14.04
2019-02-20T12:11:14.230Z,14.04
2019-02-20T12:12:18.583Z,14.04
2019-02-20T12:13:22.610Z,14.05
2019-02-20T12:14:26.641Z,14.06
2019-02-20T12:15:31.069Z,14.07
2019-02-20T12:16:35.614Z,14.06
2019-02-20T12:17:41.051Z,14.05
2019-02-20T12:18:48.056Z,14.00
2019-02-20T12:19:52.058Z,13.98
2019-02-20T12:20:56.087Z,13.97
2019-02-20T12:22:00.393Z,13.98
2019-02-20T12:23:04.399Z,13.98
2019-02-20T12:24:08.735Z,13.97
2019-02-20T12:25:16.525Z,13.99
2019-02-20T12:26:20.671Z,13.98
2019-02-20T12:27:24.942Z,13.98
2019-02-20T12:28:29.166Z,13.98
2019-02-20T12:29:33.375Z,13.99
2019-02-20T12:30:38.141Z,14.00
2019-02-20T12:31:42.205Z,13.97
2019-02-20T12:32:46.553Z,13.92
2019-02-20T12:33:52.246Z,13.93
2019-02-20T12:34:56.347Z,13.92
2019-02-20T12:36:00.463Z,13.91
2019-02-20T12:37:04.789Z,13.90
2019-02-20T12:38:09.146Z,13.86
2019-02-20T12:39:13.098Z,13.95
2019-02-20T12:40:17.112Z,13.93
2019-02-20T12:41:21.458Z,13.84
2019-02-20T12:42:25.869Z,13.80
2019-02-20T12:43:29.875Z,13.76
2019-02-20T12:44:33.915Z,13.77
2019-02-20T12:45:37.903Z,13.75
2019-02-20T12:46:42.283Z,13.79
2019-02-20T12:47:46.669Z,13.80
2019-02-20T12:48:51.100Z,13.80
2019-02-20T12:49:55.103Z,13.86
2019-02-20T12:50:59.421Z,13.84
2019-02-20T12:52:03.926Z,13.87
2019-02-20T12:53:08.208Z,13.94
2019-02-20T12:54:12.222Z,13.99
2019-02-20T12:55:16.540Z,14.01
2019-02-20T12:56:20.495Z,14.03
2019-02-20T12:57:24.925Z,14.04
2019-02-20T12:58:29.116Z,14.09
2019-02-20T12:59:33.166Z,14.11
2019-02-20T13:00:37.166Z,14.18
2019-02-20T13:01:41.179Z,14.18
2019-02-20T13:02:45.212Z,14.22
2019-02-20T13:03:49.283Z,14.25
2019-02-20T13:04:53.438Z,14.27
2019-02-20T13:05:57.533Z,14.30
2019-02-20T13:07:01.496Z,14.34
2019-02-20T13:08:05.530Z,14.35
2019-02-20T13:09:12.707Z,14.37
2019-02-20T13:10:17.137Z,14.42
2019-02-20T13:11:21.479Z,14.45
2019-02-20T13:12:25.516Z,14.53
2019-02-20T13:13:29.576Z,14.41
2019-02-20T13:14:33.673Z,14.44
2019-02-20T13:15:38.031Z,14.34
2019-02-20T13:16:42.162Z,14.30
2019-02-20T13:17:46.221Z,14.31
2019-02-20T13:18:50.185Z,14.28
2019-02-20T13:19:56.737Z,14.30
2019-02-20T13:21:00.631Z,14.32
2019-02-20T13:22:04.664Z,14.34
2019-02-20T13:23:08.831Z,14.37
2019-02-20T13:24:12.907Z,14.41
2019-02-20T13:25:27.304Z,14.44
2019-02-20T13:26:31.341Z,14.49
2019-02-20T13:27:35.363Z,14.54
2019-02-20T13:28:39.722Z,14.54
2019-02-20T13:29:44.279Z,14.55
2019-02-20T13:30:48.430Z,14.59
2019-02-20T13:31:52.750Z,14.59
2019-02-20T13:32:57.077Z,14.62
2019-02-20T13:34:01.143Z,14.63
2019-02-20T13:35:05.857Z,14.63
2019-02-20T13:36:10.070Z,14.64
2019-02-20T13:37:14.129Z,14.68
2019-02-20T13:38:18.142Z,14.69
2019-02-20T13:39:22.437Z,14.68
2019-02-20T13:40:26.408Z,14.70
2019-02-20T13:41:30.998Z,14.74
2019-02-20T13:42:35.070Z,14.81
2019-02-20T13:43:39.638Z,14.71
2019-02-20T13:44:43.676Z,14.65
2019-02-20T13:45:48.253Z,14.63
2019-02-20T13:46:53.837Z,14.66
2019-02-20T13:47:58.028Z,14.65
2019-02-20T13:49:02.153Z,14.65
2019-02-20T13:50:07.166Z,14.63
2019-02-20T13:51:11.117Z,14.63
2019-02-20T13:52:15.039Z,14.66
2019-02-20T13:53:19.220Z,14.67
2019-02-20T13:54:23.237Z,14.67
2019-02-20T13:55:34.289Z,14.68
2019-02-20T13:56:32.897Z,14.70
2019-02-20T13:57:36.845Z,14.71
2019-02-20T13:58:41.193Z,14.72
2019-02-20T13:59:45.388Z,14.74
2019-02-20T14:00:49.403Z,14.76
2019-02-20T14:01:53.401Z,14.74
2019-02-20T14:02:57.406Z,14.77
2019-02-20T14:04:01.852Z,14.75
2019-02-20T14:05:06.517Z,14.73
2019-02-20T14:06:10.538Z,14.74
2019-02-20T14:07:14.846Z,14.74
2019-02-20T14:08:19.304Z,14.75
2019-02-20T14:09:23.315Z,14.71
2019-02-20T14:10:27.173Z,14.67
2019-02-20T14:11:31.606Z,14.68
2019-02-20T14:12:35.610Z,14.66
2019-02-20T14:13:39.547Z,14.62
2019-02-20T14:14:43.475Z,14.58
2019-02-20T14:15:47.499Z,14.57
2019-02-20T14:16:51.954Z,14.54
2019-02-20T14:17:56.229Z,14.56
2019-02-20T14:19:00.505Z,14.54
2019-02-20T14:20:05.750Z,14.53